sensor_id;sensor_type;location;lat;lon;timestamp;P1;durP1;ratioP1;P2;durP2;ratioP2
86223;SDS011;76887;48.558;12.170;2024-02-26T00:01:48;141.73;;;26.70;;
86223;SDS011;76887;48.558;12.170;2024-02-26T00:04:15;137.80;;;25.45;;
86223;SDS011;76887;48.558;12.170;2024-02-26T00:06:41;138.10;;;24.85;;
86223;SDS011;76887;48.558;12.170;2024-02-26T00:09:09;130.93;;;26.17;;
86223;SDS011;76887;48.558;12.170;2024-02-26T00:11:36;129.88;;;24.63;;
86223;SDS011;76887;48.558;12.170;2024-02-26T00:14:03;135.70;;;25.75;;
86223;SDS011;76887;48.558;12.170;2024-02-26T00:16:30;133.18;;;24.02;;
86223;SDS011;76887;48.558;12.170;2024-02-26T00:18:56;137.43;;;23.85;;
86223;SDS011;76887;48.558;12.170;2024-02-26T00:21:23;136.25;;;24.20;;
86223;SDS011;76887;48.558;12.170;2024-02-26T00:23:50;135.35;;;24.27;;
86223;SDS011;76887;48.558;12.170;2024-02-26T00:26:19;134.73;;;24.98;;
86223;SDS011;76887;48.558;12.170;2024-02-26T00:28:46;139.65;;;26.23;;
86223;SDS011;76887;48.558;12.170;2024-02-26T00:31:12;149.98;;;28.92;;
86223;SDS011;76887;48.558;12.170;2024-02-26T00:33:39;150.95;;;27.00;;
86223;SDS011;76887;48.558;12.170;2024-02-26T00:36:06;155.10;;;28.17;;
86223;SDS011;76887;48.558;12.170;2024-02-26T00:38:32;163.98;;;29.10;;
86223;SDS011;76887;48.558;12.170;2024-02-26T00:40:59;163.00;;;29.17;;
86223;SDS011;76887;48.558;12.170;2024-02-26T00:43:26;161.90;;;27.50;;
86223;SDS011;76887;48.558;12.170;2024-02-26T00:45:52;177.23;;;28.40;;
86223;SDS011;76887;48.558;12.170;2024-02-26T00:48:19;170.07;;;29.25;;
86223;SDS011;76887;48.558;12.170;2024-02-26T00:50:46;181.30;;;30.80;;
86223;SDS011;76887;48.558;12.170;2024-02-26T00:53:12;171.27;;;28.45;;
86223;SDS011;76887;48.558;12.170;2024-02-26T00:55:39;173.38;;;28.55;;
86223;SDS011;76887;48.558;12.170;2024-02-26T00:58:05;177.88;;;28.58;;
86223;SDS011;76887;48.558;12.170;2024-02-26T01:00:32;173.63;;;29.05;;
86223;SDS011;76887;48.558;12.170;2024-02-26T01:02:58;171.45;;;28.80;;
86223;SDS011;76887;48.558;12.170;2024-02-26T01:07:51;167.45;;;26.77;;
86223;SDS011;76887;48.558;12.170;2024-02-26T01:10:18;165.60;;;26.70;;
86223;SDS011;76887;48.558;12.170;2024-02-26T01:12:45;162.68;;;27.17;;
86223;SDS011;76887;48.558;12.170;2024-02-26T01:15:11;158.70;;;24.77;;
86223;SDS011;76887;48.558;12.170;2024-02-26T01:17:38;161.55;;;25.50;;
86223;SDS011;76887;48.558;12.170;2024-02-26T01:20:05;162.70;;;26.52;;
86223;SDS011;76887;48.558;12.170;2024-02-26T01:22:32;166.30;;;27.30;;
86223;SDS011;76887;48.558;12.170;2024-02-26T01:24:58;169.05;;;29.05;;
86223;SDS011;76887;48.558;12.170;2024-02-26T01:27:25;176.45;;;29.48;;
86223;SDS011;76887;48.558;12.170;2024-02-26T01:29:53;175.80;;;28.30;;
86223;SDS011;76887;48.558;12.170;2024-02-26T01:32:20;175.52;;;27.55;;
86223;SDS011;76887;48.558;12.170;2024-02-26T01:34:46;176.98;;;28.35;;
86223;SDS011;76887;48.558;12.170;2024-02-26T01:37:13;181.32;;;31.83;;
86223;SDS011;76887;48.558;12.170;2024-02-26T01:39:39;177.85;;;28.95;;
86223;SDS011;76887;48.558;12.170;2024-02-26T01:42:08;179.52;;;29.58;;
86223;SDS011;76887;48.558;12.170;2024-02-26T01:44:34;178.25;;;29.60;;
86223;SDS011;76887;48.558;12.170;2024-02-26T01:47:01;175.65;;;28.17;;
86223;SDS011;76887;48.558;12.170;2024-02-26T01:49:29;191.55;;;31.83;;
86223;SDS011;76887;48.558;12.170;2024-02-26T01:51:56;194.50;;;31.52;;
86223;SDS011;76887;48.558;12.170;2024-02-26T01:54:24;186.15;;;28.42;;
86223;SDS011;76887;48.558;12.170;2024-02-26T01:59:06;197.27;;;29.58;;
86223;SDS011;76887;48.558;12.170;2024-02-26T02:01:34;199.57;;;33.05;;
86223;SDS011;76887;48.558;12.170;2024-02-26T02:04:02;198.93;;;32.40;;
86223;SDS011;76887;48.558;12.170;2024-02-26T02:06:29;194.63;;;30.70;;
86223;SDS011;76887;48.558;12.170;2024-02-26T02:08:56;196.82;;;29.60;;
86223;SDS011;76887;48.558;12.170;2024-02-26T02:11:23;196.73;;;31.50;;
86223;SDS011;76887;48.558;12.170;2024-02-26T02:17:46;168.40;;;30.05;;
86223;SDS011;76887;48.558;12.170;2024-02-26T02:20:16;174.73;;;33.95;;
86223;SDS011;76887;48.558;12.170;2024-02-26T02:22:44;148.25;;;29.40;;
86223;SDS011;76887;48.558;12.170;2024-02-26T02:25:12;148.65;;;27.60;;
86223;SDS011;76887;48.558;12.170;2024-02-26T02:27:39;151.52;;;27.00;;
86223;SDS011;76887;48.558;12.170;2024-02-26T02:30:06;169.32;;;30.13;;
86223;SDS011;76887;48.558;12.170;2024-02-26T02:32:35;183.52;;;29.67;;
86223;SDS011;76887;48.558;12.170;2024-02-26T02:35:04;185.82;;;30.65;;
86223;SDS011;76887;48.558;12.170;2024-02-26T02:37:31;193.73;;;32.28;;
86223;SDS011;76887;48.558;12.170;2024-02-26T02:39:57;193.55;;;29.02;;
86223;SDS011;76887;48.558;12.170;2024-02-26T02:42:24;190.20;;;29.05;;
86223;SDS011;76887;48.558;12.170;2024-02-26T02:44:51;189.70;;;32.03;;
86223;SDS011;76887;48.558;12.170;2024-02-26T02:47:18;194.18;;;31.48;;
86223;SDS011;76887;48.558;12.170;2024-02-26T02:49:45;200.98;;;32.63;;
86223;SDS011;76887;48.558;12.170;2024-02-26T02:52:11;195.35;;;32.28;;
86223;SDS011;76887;48.558;12.170;2024-02-26T02:54:38;196.93;;;33.45;;
86223;SDS011;76887;48.558;12.170;2024-02-26T02:57:08;203.32;;;33.78;;
86223;SDS011;76887;48.558;12.170;2024-02-26T02:59:35;206.43;;;35.63;;
86223;SDS011;76887;48.558;12.170;2024-02-26T03:02:02;199.98;;;33.70;;
86223;SDS011;76887;48.558;12.170;2024-02-26T03:06:53;198.60;;;31.27;;
86223;SDS011;76887;48.558;12.170;2024-02-26T03:09:20;201.10;;;30.75;;
86223;SDS011;76887;48.558;12.170;2024-02-26T03:11:47;199.90;;;30.65;;
86223;SDS011;76887;48.558;12.170;2024-02-26T03:14:13;202.15;;;31.45;;
86223;SDS011;76887;48.558;12.170;2024-02-26T03:16:40;207.57;;;33.50;;
86223;SDS011;76887;48.558;12.170;2024-02-26T03:19:06;203.43;;;30.58;;
86223;SDS011;76887;48.558;12.170;2024-02-26T03:21:33;203.50;;;31.27;;
86223;SDS011;76887;48.558;12.170;2024-02-26T03:24:00;202.15;;;33.03;;
86223;SDS011;76887;48.558;12.170;2024-02-26T03:26:26;202.88;;;30.45;;
86223;SDS011;76887;48.558;12.170;2024-02-26T03:28:53;200.27;;;30.95;;
86223;SDS011;76887;48.558;12.170;2024-02-26T03:31:20;206.00;;;32.38;;
86223;SDS011;76887;48.558;12.170;2024-02-26T03:33:47;205.68;;;32.47;;
86223;SDS011;76887;48.558;12.170;2024-02-26T03:36:14;203.07;;;30.67;;
86223;SDS011;76887;48.558;12.170;2024-02-26T03:38:41;201.45;;;32.17;;
86223;SDS011;76887;48.558;12.170;2024-02-26T03:41:10;200.23;;;30.95;;
86223;SDS011;76887;48.558;12.170;2024-02-26T03:43:37;201.68;;;32.33;;
86223;SDS011;76887;48.558;12.170;2024-02-26T03:46:03;200.63;;;31.15;;
86223;SDS011;76887;48.558;12.170;2024-02-26T03:48:30;201.77;;;33.00;;
86223;SDS011;76887;48.558;12.170;2024-02-26T03:50:57;208.20;;;34.05;;
86223;SDS011;76887;48.558;12.170;2024-02-26T03:53:23;203.43;;;33.22;;
86223;SDS011;76887;48.558;12.170;2024-02-26T03:55:50;204.70;;;34.40;;
86223;SDS011;76887;48.558;12.170;2024-02-26T03:58:18;205.52;;;33.60;;
86223;SDS011;76887;48.558;12.170;2024-02-26T04:00:44;204.60;;;34.20;;
86223;SDS011;76887;48.558;12.170;2024-02-26T04:03:14;201.65;;;32.10;;
86223;SDS011;76887;48.558;12.170;2024-02-26T04:05:40;201.10;;;32.28;;
86223;SDS011;76887;48.558;12.170;2024-02-26T04:08:07;198.90;;;30.65;;
86223;SDS011;76887;48.558;12.170;2024-02-26T04:10:34;201.38;;;32.55;;
86223;SDS011;76887;48.558;12.170;2024-02-26T04:13:06;200.38;;;31.30;;
86223;SDS011;76887;48.558;12.170;2024-02-26T04:15:33;197.52;;;29.98;;
86223;SDS011;76887;48.558;12.170;2024-02-26T04:18:00;200.18;;;32.28;;
86223;SDS011;76887;48.558;12.170;2024-02-26T04:20:27;204.27;;;33.20;;
86223;SDS011;76887;48.558;12.170;2024-02-26T04:22:53;203.07;;;34.33;;
86223;SDS011;76887;48.558;12.170;2024-02-26T04:25:20;208.80;;;32.70;;
86223;SDS011;76887;48.558;12.170;2024-02-26T04:27:47;200.27;;;32.03;;
86223;SDS011;76887;48.558;12.170;2024-02-26T04:30:13;195.35;;;31.50;;
86223;SDS011;76887;48.558;12.170;2024-02-26T04:32:40;200.00;;;30.30;;
86223;SDS011;76887;48.558;12.170;2024-02-26T04:37:30;194.82;;;31.10;;
86223;SDS011;76887;48.558;12.170;2024-02-26T04:39:59;203.90;;;33.92;;
86223;SDS011;76887;48.558;12.170;2024-02-26T04:42:27;197.15;;;33.22;;
86223;SDS011;76887;48.558;12.170;2024-02-26T04:44:54;201.38;;;34.13;;
86223;SDS011;76887;48.558;12.170;2024-02-26T04:47:21;209.07;;;33.38;;
86223;SDS011;76887;48.558;12.170;2024-02-26T04:49:51;205.55;;;32.88;;
86223;SDS011;76887;48.558;12.170;2024-02-26T04:52:18;205.27;;;32.92;;
86223;SDS011;76887;48.558;12.170;2024-02-26T04:54:45;201.90;;;31.83;;
86223;SDS011;76887;48.558;12.170;2024-02-26T04:57:12;198.73;;;32.15;;
86223;SDS011;76887;48.558;12.170;2024-02-26T04:59:39;201.82;;;33.70;;
86223;SDS011;76887;48.558;12.170;2024-02-26T05:02:07;199.18;;;33.53;;
86223;SDS011;76887;48.558;12.170;2024-02-26T05:04:34;208.18;;;32.28;;
86223;SDS011;76887;48.558;12.170;2024-02-26T05:07:00;202.68;;;32.50;;
86223;SDS011;76887;48.558;12.170;2024-02-26T05:09:27;215.10;;;33.38;;
86223;SDS011;76887;48.558;12.170;2024-02-26T05:11:54;208.88;;;31.88;;
86223;SDS011;76887;48.558;12.170;2024-02-26T05:14:20;212.63;;;34.65;;
86223;SDS011;76887;48.558;12.170;2024-02-26T05:16:47;213.68;;;34.03;;
86223;SDS011;76887;48.558;12.170;2024-02-26T05:19:14;213.05;;;35.05;;
86223;SDS011;76887;48.558;12.170;2024-02-26T05:21:41;213.90;;;33.28;;
86223;SDS011;76887;48.558;12.170;2024-02-26T05:24:09;208.27;;;31.17;;
86223;SDS011;76887;48.558;12.170;2024-02-26T05:26:35;214.73;;;34.65;;
86223;SDS011;76887;48.558;12.170;2024-02-26T05:29:02;217.82;;;33.55;;
86223;SDS011;76887;48.558;12.170;2024-02-26T05:31:29;215.82;;;33.80;;
86223;SDS011;76887;48.558;12.170;2024-02-26T05:33:55;214.20;;;34.15;;
86223;SDS011;76887;48.558;12.170;2024-02-26T05:36:22;211.20;;;32.78;;
86223;SDS011;76887;48.558;12.170;2024-02-26T05:38:49;206.38;;;33.60;;
86223;SDS011;76887;48.558;12.170;2024-02-26T05:41:16;210.93;;;33.97;;
86223;SDS011;76887;48.558;12.170;2024-02-26T05:43:49;213.80;;;34.40;;
86223;SDS011;76887;48.558;12.170;2024-02-26T05:48:30;211.82;;;33.35;;
86223;SDS011;76887;48.558;12.170;2024-02-26T05:50:58;211.77;;;32.65;;
86223;SDS011;76887;48.558;12.170;2024-02-26T05:53:25;212.98;;;32.08;;
86223;SDS011;76887;48.558;12.170;2024-02-26T05:55:51;209.32;;;32.97;;
86223;SDS011;76887;48.558;12.170;2024-02-26T05:58:18;214.10;;;32.45;;
86223;SDS011;76887;48.558;12.170;2024-02-26T06:00:44;214.05;;;33.60;;
86223;SDS011;76887;48.558;12.170;2024-02-26T06:03:11;219.15;;;34.83;;
86223;SDS011;76887;48.558;12.170;2024-02-26T06:05:37;212.68;;;31.83;;
86223;SDS011;76887;48.558;12.170;2024-02-26T06:08:04;214.02;;;34.00;;
86223;SDS011;76887;48.558;12.170;2024-02-26T06:10:33;217.18;;;32.50;;
86223;SDS011;76887;48.558;12.170;2024-02-26T06:12:59;216.38;;;34.95;;
86223;SDS011;76887;48.558;12.170;2024-02-26T06:15:26;215.93;;;34.35;;
86223;SDS011;76887;48.558;12.170;2024-02-26T06:17:52;215.63;;;34.08;;
86223;SDS011;76887;48.558;12.170;2024-02-26T06:20:19;207.20;;;31.75;;
86223;SDS011;76887;48.558;12.170;2024-02-26T06:22:45;206.63;;;32.50;;
86223;SDS011;76887;48.558;12.170;2024-02-26T06:25:12;217.52;;;34.42;;
86223;SDS011;76887;48.558;12.170;2024-02-26T06:27:38;214.80;;;35.90;;
86223;SDS011;76887;48.558;12.170;2024-02-26T06:30:05;220.02;;;35.88;;
86223;SDS011;76887;48.558;12.170;2024-02-26T06:32:32;221.75;;;35.13;;
86223;SDS011;76887;48.558;12.170;2024-02-26T06:34:59;216.38;;;34.78;;
86223;SDS011;76887;48.558;12.170;2024-02-26T06:37:26;210.15;;;32.92;;
86223;SDS011;76887;48.558;12.170;2024-02-26T06:39:52;211.57;;;32.50;;
86223;SDS011;76887;48.558;12.170;2024-02-26T06:42:19;214.00;;;33.28;;
86223;SDS011;76887;48.558;12.170;2024-02-26T06:44:45;210.52;;;31.40;;
86223;SDS011;76887;48.558;12.170;2024-02-26T06:47:12;210.45;;;33.60;;
86223;SDS011;76887;48.558;12.170;2024-02-26T06:49:38;209.15;;;33.30;;
86223;SDS011;76887;48.558;12.170;2024-02-26T06:52:05;213.05;;;33.97;;
86223;SDS011;76887;48.558;12.170;2024-02-26T06:54:32;204.85;;;32.47;;
86223;SDS011;76887;48.558;12.170;2024-02-26T06:56:59;210.70;;;34.58;;
86223;SDS011;76887;48.558;12.170;2024-02-26T06:59:26;208.85;;;35.58;;
86223;SDS011;76887;48.558;12.170;2024-02-26T07:01:53;211.27;;;35.17;;
86223;SDS011;76887;48.558;12.170;2024-02-26T07:04:20;204.05;;;31.80;;
86223;SDS011;76887;48.558;12.170;2024-02-26T07:06:47;211.45;;;35.63;;
86223;SDS011;76887;48.558;12.170;2024-02-26T07:09:14;208.77;;;34.45;;
86223;SDS011;76887;48.558;12.170;2024-02-26T07:11:42;198.73;;;32.80;;
86223;SDS011;76887;48.558;12.170;2024-02-26T07:14:09;203.85;;;34.08;;
86223;SDS011;76887;48.558;12.170;2024-02-26T07:16:36;206.93;;;35.33;;
86223;SDS011;76887;48.558;12.170;2024-02-26T07:19:03;201.02;;;34.40;;
86223;SDS011;76887;48.558;12.170;2024-02-26T07:21:30;201.40;;;34.28;;
86223;SDS011;76887;48.558;12.170;2024-02-26T07:23:57;209.02;;;35.80;;
86223;SDS011;76887;48.558;12.170;2024-02-26T07:26:24;207.82;;;35.83;;
86223;SDS011;76887;48.558;12.170;2024-02-26T07:28:52;210.85;;;35.25;;
86223;SDS011;76887;48.558;12.170;2024-02-26T07:31:19;207.85;;;36.58;;
86223;SDS011;76887;48.558;12.170;2024-02-26T07:33:45;202.48;;;35.25;;
86223;SDS011;76887;48.558;12.170;2024-02-26T07:36:12;200.85;;;36.17;;
86223;SDS011;76887;48.558;12.170;2024-02-26T07:38:39;199.82;;;35.55;;
86223;SDS011;76887;48.558;12.170;2024-02-26T07:41:09;200.80;;;36.42;;
86223;SDS011;76887;48.558;12.170;2024-02-26T07:43:36;190.63;;;35.03;;
86223;SDS011;76887;48.558;12.170;2024-02-26T07:46:03;192.52;;;34.70;;
86223;SDS011;76887;48.558;12.170;2024-02-26T07:48:29;184.05;;;32.92;;
86223;SDS011;76887;48.558;12.170;2024-02-26T07:50:57;181.95;;;33.95;;
86223;SDS011;76887;48.558;12.170;2024-02-26T07:53:25;187.98;;;33.72;;
86223;SDS011;76887;48.558;12.170;2024-02-26T07:55:52;183.57;;;33.28;;
86223;SDS011;76887;48.558;12.170;2024-02-26T07:58:18;185.73;;;32.90;;
86223;SDS011;76887;48.558;12.170;2024-02-26T08:00:45;172.95;;;31.27;;
86223;SDS011;76887;48.558;12.170;2024-02-26T08:03:12;173.65;;;32.40;;
86223;SDS011;76887;48.558;12.170;2024-02-26T08:05:42;171.95;;;31.02;;
86223;SDS011;76887;48.558;12.170;2024-02-26T08:08:09;172.02;;;30.92;;
86223;SDS011;76887;48.558;12.170;2024-02-26T08:10:36;162.10;;;29.63;;
86223;SDS011;76887;48.558;12.170;2024-02-26T08:13:02;150.60;;;29.05;;
86223;SDS011;76887;48.558;12.170;2024-02-26T08:15:32;150.68;;;30.33;;
86223;SDS011;76887;48.558;12.170;2024-02-26T08:18:01;150.57;;;30.65;;
86223;SDS011;76887;48.558;12.170;2024-02-26T08:20:30;147.50;;;28.90;;
86223;SDS011;76887;48.558;12.170;2024-02-26T08:22:57;149.68;;;29.35;;
86223;SDS011;76887;48.558;12.170;2024-02-26T08:25:24;142.80;;;29.88;;
86223;SDS011;76887;48.558;12.170;2024-02-26T08:27:51;144.25;;;29.63;;
86223;SDS011;76887;48.558;12.170;2024-02-26T08:30:17;137.77;;;28.70;;
86223;SDS011;76887;48.558;12.170;2024-02-26T08:32:45;135.93;;;29.05;;
86223;SDS011;76887;48.558;12.170;2024-02-26T08:35:16;137.82;;;28.80;;
86223;SDS011;76887;48.558;12.170;2024-02-26T08:37:44;121.97;;;26.67;;
86223;SDS011;76887;48.558;12.170;2024-02-26T08:40:11;130.35;;;28.02;;
86223;SDS011;76887;48.558;12.170;2024-02-26T08:42:38;125.93;;;27.70;;
86223;SDS011;76887;48.558;12.170;2024-02-26T08:45:04;123.93;;;27.50;;
86223;SDS011;76887;48.558;12.170;2024-02-26T08:47:31;132.52;;;30.73;;
86223;SDS011;76887;48.558;12.170;2024-02-26T08:49:58;129.30;;;29.05;;
86223;SDS011;76887;48.558;12.170;2024-02-26T08:52:25;136.05;;;29.58;;
86223;SDS011;76887;48.558;12.170;2024-02-26T08:54:52;139.52;;;29.65;;
86223;SDS011;76887;48.558;12.170;2024-02-26T08:57:18;146.80;;;30.27;;
86223;SDS011;76887;48.558;12.170;2024-02-26T08:59:45;140.00;;;29.95;;
86223;SDS011;76887;48.558;12.170;2024-02-26T09:02:11;146.55;;;31.10;;
86223;SDS011;76887;48.558;12.170;2024-02-26T09:04:38;151.70;;;31.38;;
86223;SDS011;76887;48.558;12.170;2024-02-26T09:07:04;158.65;;;32.25;;
86223;SDS011;76887;48.558;12.170;2024-02-26T09:09:32;144.23;;;29.02;;
86223;SDS011;76887;48.558;12.170;2024-02-26T09:11:58;139.65;;;29.42;;
86223;SDS011;76887;48.558;12.170;2024-02-26T09:14:25;138.48;;;29.30;;
86223;SDS011;76887;48.558;12.170;2024-02-26T09:16:53;149.07;;;30.80;;
86223;SDS011;76887;48.558;12.170;2024-02-26T09:19:20;141.40;;;31.10;;
86223;SDS011;76887;48.558;12.170;2024-02-26T09:21:46;151.63;;;32.47;;
86223;SDS011;76887;48.558;12.170;2024-02-26T09:24:13;146.70;;;31.23;;
86223;SDS011;76887;48.558;12.170;2024-02-26T09:26:41;145.82;;;30.63;;
86223;SDS011;76887;48.558;12.170;2024-02-26T09:29:08;144.70;;;30.65;;
86223;SDS011;76887;48.558;12.170;2024-02-26T09:31:34;146.52;;;29.65;;
86223;SDS011;76887;48.558;12.170;2024-02-26T09:34:01;146.52;;;30.60;;
86223;SDS011;76887;48.558;12.170;2024-02-26T09:36:28;152.65;;;31.13;;
86223;SDS011;76887;48.558;12.170;2024-02-26T09:38:56;155.68;;;30.90;;
86223;SDS011;76887;48.558;12.170;2024-02-26T09:41:30;153.65;;;31.45;;
86223;SDS011;76887;48.558;12.170;2024-02-26T09:43:58;153.35;;;31.80;;
86223;SDS011;76887;48.558;12.170;2024-02-26T09:46:26;154.80;;;31.30;;
86223;SDS011;76887;48.558;12.170;2024-02-26T09:48:53;156.90;;;30.75;;
86223;SDS011;76887;48.558;12.170;2024-02-26T09:51:20;154.93;;;30.60;;
86223;SDS011;76887;48.558;12.170;2024-02-26T09:53:52;151.25;;;30.25;;
86223;SDS011;76887;48.558;12.170;2024-02-26T09:56:19;145.13;;;29.15;;
86223;SDS011;76887;48.558;12.170;2024-02-26T09:58:47;144.57;;;28.92;;
86223;SDS011;76887;48.558;12.170;2024-02-26T10:01:20;132.63;;;27.35;;
86223;SDS011;76887;48.558;12.170;2024-02-26T10:03:56;132.45;;;27.40;;
86223;SDS011;76887;48.558;12.170;2024-02-26T10:06:26;128.75;;;26.00;;
86223;SDS011;76887;48.558;12.170;2024-02-26T10:08:54;124.07;;;25.55;;
86223;SDS011;76887;48.558;12.170;2024-02-26T10:11:21;124.35;;;25.58;;
86223;SDS011;76887;48.558;12.170;2024-02-26T10:13:49;112.18;;;24.85;;
86223;SDS011;76887;48.558;12.170;2024-02-26T10:16:16;103.07;;;23.50;;
86223;SDS011;76887;48.558;12.170;2024-02-26T10:18:49;110.38;;;24.52;;
86223;SDS011;76887;48.558;12.170;2024-02-26T10:21:25;116.30;;;25.27;;
86223;SDS011;76887;48.558;12.170;2024-02-26T10:23:51;105.80;;;23.75;;
86223;SDS011;76887;48.558;12.170;2024-02-26T10:26:18;102.03;;;22.65;;
86223;SDS011;76887;48.558;12.170;2024-02-26T10:28:45;104.72;;;21.52;;
86223;SDS011;76887;48.558;12.170;2024-02-26T10:31:16;98.00;;;21.17;;
86223;SDS011;76887;48.558;12.170;2024-02-26T10:33:43;99.80;;;20.75;;
86223;SDS011;76887;48.558;12.170;2024-02-26T10:36:11;103.50;;;21.45;;
86223;SDS011;76887;48.558;12.170;2024-02-26T10:38:38;101.45;;;21.80;;
86223;SDS011;76887;48.558;12.170;2024-02-26T10:41:09;100.75;;;20.75;;
86223;SDS011;76887;48.558;12.170;2024-02-26T10:43:39;95.38;;;20.35;;
86223;SDS011;76887;48.558;12.170;2024-02-26T10:46:06;101.15;;;21.63;;
86223;SDS011;76887;48.558;12.170;2024-02-26T10:48:34;95.90;;;20.67;;
86223;SDS011;76887;48.558;12.170;2024-02-26T10:51:01;95.40;;;21.52;;
86223;SDS011;76887;48.558;12.170;2024-02-26T10:53:29;94.10;;;19.73;;
86223;SDS011;76887;48.558;12.170;2024-02-26T10:56:03;95.03;;;20.20;;
86223;SDS011;76887;48.558;12.170;2024-02-26T10:58:31;94.80;;;20.33;;
86223;SDS011;76887;48.558;12.170;2024-02-26T11:00:58;92.07;;;18.88;;
86223;SDS011;76887;48.558;12.170;2024-02-26T11:03:26;94.03;;;19.98;;
86223;SDS011;76887;48.558;12.170;2024-02-26T11:05:54;91.43;;;18.83;;
86223;SDS011;76887;48.558;12.170;2024-02-26T11:08:23;93.55;;;19.23;;
86223;SDS011;76887;48.558;12.170;2024-02-26T11:10:52;99.38;;;20.52;;
86223;SDS011;76887;48.558;12.170;2024-02-26T11:13:20;102.68;;;20.10;;
86223;SDS011;76887;48.558;12.170;2024-02-26T11:15:47;97.50;;;19.90;;
86223;SDS011;76887;48.558;12.170;2024-02-26T11:18:15;96.15;;;18.73;;
86223;SDS011;76887;48.558;12.170;2024-02-26T11:23:12;108.88;;;20.02;;
86223;SDS011;76887;48.558;12.170;2024-02-26T11:25:39;100.07;;;19.58;;
86223;SDS011;76887;48.558;12.170;2024-02-26T11:28:06;95.82;;;19.17;;
86223;SDS011;76887;48.558;12.170;2024-02-26T11:30:39;105.47;;;20.13;;
86223;SDS011;76887;48.558;12.170;2024-02-26T11:33:09;106.25;;;21.80;;
86223;SDS011;76887;48.558;12.170;2024-02-26T11:35:37;89.97;;;18.88;;
86223;SDS011;76887;48.558;12.170;2024-02-26T11:38:04;89.82;;;19.00;;
86223;SDS011;76887;48.558;12.170;2024-02-26T11:40:33;86.47;;;19.77;;
86223;SDS011;76887;48.558;12.170;2024-02-26T11:43:05;84.53;;;19.48;;
86223;SDS011;76887;48.558;12.170;2024-02-26T11:48:04;86.13;;;21.27;;
86223;SDS011;76887;48.558;12.170;2024-02-26T11:50:41;89.75;;;21.63;;
86223;SDS011;76887;48.558;12.170;2024-02-26T11:53:28;92.43;;;22.00;;
86223;SDS011;76887;48.558;12.170;2024-02-26T11:58:43;90.03;;;21.08;;
86223;SDS011;76887;48.558;12.170;2024-02-26T12:04:02;84.60;;;20.98;;
86223;SDS011;76887;48.558;12.170;2024-02-26T12:06:31;86.60;;;21.55;;
86223;SDS011;76887;48.558;12.170;2024-02-26T12:08:57;84.20;;;21.20;;
86223;SDS011;76887;48.558;12.170;2024-02-26T12:11:27;82.15;;;21.05;;
86223;SDS011;76887;48.558;12.170;2024-02-26T12:13:54;77.55;;;18.95;;
86223;SDS011;76887;48.558;12.170;2024-02-26T12:16:40;85.82;;;22.05;;
86223;SDS011;76887;48.558;12.170;2024-02-26T12:19:09;78.20;;;20.95;;
86223;SDS011;76887;48.558;12.170;2024-02-26T12:21:36;77.30;;;19.85;;
86223;SDS011;76887;48.558;12.170;2024-02-26T12:24:07;73.75;;;18.58;;
86223;SDS011;76887;48.558;12.170;2024-02-26T12:26:37;76.20;;;19.88;;
86223;SDS011;76887;48.558;12.170;2024-02-26T12:29:03;76.72;;;18.50;;
86223;SDS011;76887;48.558;12.170;2024-02-26T12:31:31;76.95;;;18.55;;
86223;SDS011;76887;48.558;12.170;2024-02-26T12:34:03;75.07;;;18.42;;
86223;SDS011;76887;48.558;12.170;2024-02-26T12:36:31;76.60;;;19.60;;
86223;SDS011;76887;48.558;12.170;2024-02-26T12:38:58;74.18;;;18.80;;
86223;SDS011;76887;48.558;12.170;2024-02-26T12:41:26;73.30;;;18.67;;
86223;SDS011;76887;48.558;12.170;2024-02-26T12:43:53;77.28;;;19.13;;
86223;SDS011;76887;48.558;12.170;2024-02-26T12:46:20;78.38;;;19.10;;
86223;SDS011;76887;48.558;12.170;2024-02-26T12:48:47;79.65;;;19.13;;
86223;SDS011;76887;48.558;12.170;2024-02-26T12:51:14;74.88;;;18.67;;
86223;SDS011;76887;48.558;12.170;2024-02-26T12:53:43;69.72;;;17.45;;
86223;SDS011;76887;48.558;12.170;2024-02-26T12:56:11;69.15;;;18.10;;
86223;SDS011;76887;48.558;12.170;2024-02-26T12:58:40;69.40;;;17.92;;
86223;SDS011;76887;48.558;12.170;2024-02-26T13:01:08;69.80;;;17.85;;
86223;SDS011;76887;48.558;12.170;2024-02-26T13:03:41;67.22;;;17.63;;
86223;SDS011;76887;48.558;12.170;2024-02-26T13:06:11;68.35;;;17.95;;
86223;SDS011;76887;48.558;12.170;2024-02-26T13:08:38;70.05;;;18.15;;
86223;SDS011;76887;48.558;12.170;2024-02-26T13:11:05;70.47;;;18.65;;
86223;SDS011;76887;48.558;12.170;2024-02-26T13:13:32;67.53;;;17.85;;
86223;SDS011;76887;48.558;12.170;2024-02-26T13:16:02;65.90;;;18.05;;
86223;SDS011;76887;48.558;12.170;2024-02-26T13:18:30;64.78;;;16.77;;
86223;SDS011;76887;48.558;12.170;2024-02-26T13:21:13;67.15;;;17.15;;
86223;SDS011;76887;48.558;12.170;2024-02-26T13:23:41;63.55;;;17.08;;
86223;SDS011;76887;48.558;12.170;2024-02-26T13:26:11;62.83;;;16.58;;
86223;SDS011;76887;48.558;12.170;2024-02-26T13:28:38;61.38;;;16.90;;
86223;SDS011;76887;48.558;12.170;2024-02-26T13:31:05;61.35;;;16.38;;
86223;SDS011;76887;48.558;12.170;2024-02-26T13:33:34;57.60;;;16.38;;
86223;SDS011;76887;48.558;12.170;2024-02-26T13:36:01;58.35;;;16.52;;
86223;SDS011;76887;48.558;12.170;2024-02-26T13:38:28;60.67;;;17.38;;
86223;SDS011;76887;48.558;12.170;2024-02-26T13:40:54;61.47;;;17.15;;
86223;SDS011;76887;48.558;12.170;2024-02-26T13:43:21;60.42;;;17.17;;
86223;SDS011;76887;48.558;12.170;2024-02-26T13:45:48;59.42;;;16.33;;
86223;SDS011;76887;48.558;12.170;2024-02-26T13:48:15;60.05;;;15.75;;
86223;SDS011;76887;48.558;12.170;2024-02-26T13:50:43;57.47;;;15.85;;
86223;SDS011;76887;48.558;12.170;2024-02-26T13:53:12;59.40;;;15.73;;
86223;SDS011;76887;48.558;12.170;2024-02-26T13:55:39;59.40;;;16.13;;
86223;SDS011;76887;48.558;12.170;2024-02-26T13:58:10;57.95;;;15.50;;
86223;SDS011;76887;48.558;12.170;2024-02-26T14:00:38;55.97;;;15.00;;
86223;SDS011;76887;48.558;12.170;2024-02-26T14:03:05;53.75;;;15.43;;
86223;SDS011;76887;48.558;12.170;2024-02-26T14:05:32;58.97;;;16.17;;
86223;SDS011;76887;48.558;12.170;2024-02-26T14:07:58;56.28;;;15.20;;
86223;SDS011;76887;48.558;12.170;2024-02-26T14:10:25;55.03;;;16.02;;
86223;SDS011;76887;48.558;12.170;2024-02-26T14:12:52;54.95;;;15.80;;
86223;SDS011;76887;48.558;12.170;2024-02-26T14:15:19;56.65;;;15.55;;
86223;SDS011;76887;48.558;12.170;2024-02-26T14:17:46;57.72;;;15.98;;
86223;SDS011;76887;48.558;12.170;2024-02-26T14:20:20;64.60;;;17.00;;
86223;SDS011;76887;48.558;12.170;2024-02-26T14:22:47;58.13;;;15.40;;
86223;SDS011;76887;48.558;12.170;2024-02-26T14:25:14;57.83;;;15.50;;
86223;SDS011;76887;48.558;12.170;2024-02-26T14:27:41;58.40;;;15.80;;